Observations for ALICANTE EL ALTET, Spain (LEAL)

LEAL 140830Z 14002KT 9999 FEW015 30/23 Q1015 NOSIG  
LEAL 140800Z 12003KT 030V200 9999 SCT015 29/24 Q1015 NOSIG  
LEAL 140730Z VRB01KT 9999 FEW012 SCT018 28/24 Q1015 NOSIG   
LEAL 140700Z VRB01KT 9999 SCT012 27/24 Q1015 NOSIG  
LEAL 140630Z 01003KT 320V070 9999 FEW018 27/24 Q1015 NOSIG  
LEAL 140600Z 06003KT 010V080 9999 BKN018 26/24 Q1014 NOSIG  
LEAL 140530Z 07004KT 9000 SCT020 26/24 Q1014 NOSIG  
LEAL 140500Z 08007KT CAVOK 26/24 Q1014 NOSIG
LEAL 140430Z 02005KT CAVOK 25/23 Q1013 NOSIG
LEAL 140400Z 02005KT CAVOK 25/23 Q1013 NOSIG
LEAL 140330Z 02005KT CAVOK 25/22 Q1012 NOSIG
LEAL 140300Z 02005KT CAVOK 25/23 Q1012 NOSIG
LEAL 140230Z 02003KT CAVOK 25/24 Q1012 NOSIG
LEAL 140200Z 10001KT CAVOK 25/24 Q1012 NOSIG
LEAL 140130Z 05001KT CAVOK 26/24 Q1012 NOSIG
LEAL 140100Z VRB01KT CAVOK 26/24 Q1012 NOSIG
LEAL 140030Z VRB01KT CAVOK 26/24 Q1012 NOSIG
LEAL 140000Z 00000KT CAVOK 26/24 Q1012 NOSIG
LEAL 132330Z 00000KT CAVOK 26/24 Q1012 NOSIG
LEAL 132300Z 00000KT CAVOK 27/24 Q1012 NOSIG
LEAL 132230Z 04003KT 350V070 CAVOK 27/24 Q1012 NOSIG
LEAL 132200Z 04003KT 010V080 CAVOK 27/24 Q1012 NOSIG
LEAL 132130Z 04004KT 010V070 CAVOK 27/24 Q1012 NOSIG
LEAL 132100Z VRB01KT CAVOK 27/24 Q1012 NOSIG
LEAL 132030Z 10006KT CAVOK 27/25 Q1011 NOSIG
LEAL 132000Z 08007KT CAVOK 27/25 Q1011 NOSIG
LEAL 131930Z 06008KT CAVOK 28/25 Q1011 NOSIG
LEAL 131900Z 05008KT 020V080 9999 FEW020CB 28/24 Q1011 NOSIG
LEAL 131830Z VRB02KT 9999 FEW020CB 28/24 Q1011 NOSIG
LEAL 131800Z 18003KT 140V280 9999 SCT029TCU 29/24 Q1011 NOSIG   
LEAL 131730Z 17005KT 100V240 CAVOK 29/24 Q1010 NOSIG
LEAL 131700Z 16006KT 080V240 CAVOK 30/24 Q1011 NOSIG
LEAL 131630Z 18005KT 120V280 CAVOK 30/23 Q1011 NOSIG
LEAL 131600Z 14005KT 100V220 CAVOK 30/24 Q1011 NOSIG
LEAL 131530Z 17006KT 110V230 CAVOK 29/24 Q1011 NOSIG
LEAL 131500Z 14008KT 110V190 CAVOK 30/24 Q1011 NOSIG
LEAL 131430Z 15008KT 100V210 CAVOK 31/24 Q1011 NOSIG
LEAL 131400Z 18008KT 120V240 CAVOK 32/24 Q1011 NOSIG
LEAL 131330Z 18008KT 130V230 CAVOK 32/24 Q1011 NOSIG
LEAL 131300Z 18008KT 120V250 CAVOK 31/24 Q1012 NOSIG
LEAL 131230Z 19008KT 140V230 CAVOK 31/24 Q1012 NOSIG
LEAL 131200Z 19010KT 130V230 CAVOK 30/24 Q1012 NOSIG
LEAL 131130Z 19010KT 160V240 CAVOK 31/24 Q1012 NOSIG
LEAL 131100Z 21006KT 160V280 CAVOK 33/21 Q1013 NOSIG
LEAL 131030Z VRB05KT CAVOK 32/22 Q1013 NOSIG
LEAL 131000Z VRB03KT CAVOK 32/22 Q1013 NOSIG
LEAL 130930Z 24004KT 170V330 9999 SCT021 31/22 Q1013 NOSIG  
LEAL 130900Z VRB02KT 9999 SCT021 30/22 Q1013 NOSIG  
LEAL 130830Z 24004KT 170V320 9999 SCT021 29/23 Q1014 NOSIG  
LEAL 130800Z VRB02KT 9999 SCT021 28/24 Q1013 NOSIG